Time;durP1;ratioP1;P1;durP2;ratioP2;P2;SDS_P1;SDS_P2;PMS_P1;PMS_P2;Temp;Humidity;BMP_temperature;BMP_pressure;BME280_temperature;BME280_humidity;BME280_pressure;Samples;Min_cycle;Max_cycle;Signal;HPM_P1;HPM_P2
2023/07/24 00:02:09;;;;;;;5.35;3.85;;;;;;;18.24;100.00;100355.97;10316495;28;20104;-73
2023/07/24 00:07:09;;;;;;;4.50;4.07;;;;;;;18.21;100.00;100349.06;10333907;28;20035;-72
2023/07/24 00:12:10;;;;;;;3.60;3.35;;;;;;;18.25;100.00;100343.91;10333557;28;20459;-71
2023/07/24 00:17:10;;;;;;;6.75;4.38;;;;;;;18.10;100.00;100342.69;10317815;28;20082;-72
2023/07/24 00:22:11;;;;;;;4.53;3.75;;;;;;;18.01;100.00;100348.91;10332834;28;20065;-73
2023/07/24 00:27:11;;;;;;;4.80;4.35;;;;;;;18.10;100.00;100334.47;10334168;28;20458;-72
2023/07/24 00:32:11;;;;;;;5.32;3.80;;;;;;;18.12;100.00;100329.56;10333163;28;20042;-71
2023/07/24 00:37:12;;;;;;;4.72;3.95;;;;;;;18.12;100.00;100321.34;10314857;28;20038;-73
2023/07/24 00:42:12;;;;;;;4.35;3.97;;;;;;;18.06;100.00;100318.81;10333095;28;20038;-72
2023/07/24 00:47:12;;;;;;;8.20;5.53;;;;;;;17.95;100.00;100306.94;10331657;28;20034;-73
2023/07/24 00:52:13;;;;;;;9.52;6.05;;;;;;;17.86;100.00;100305.75;10331921;28;20408;-72
2023/07/24 00:57:13;;;;;;;6.80;6.10;;;;;;;17.79;100.00;100307.91;10314954;28;20046;-73
2023/07/24 01:02:14;;;;;;;5.53;5.03;;;;;;;17.74;100.00;100318.75;10315007;28;20042;-72
2023/07/24 01:07:16;;;;;;;10.10;6.22;;;;;;;17.66;100.00;100322.81;10331732;28;20053;-72
2023/07/24 01:12:38;;;;;;;8.30;5.70;;;;;;;17.62;100.00;100321.69;10333087;28;20049;-74
2023/07/24 01:17:41;;;;;;;6.50;4.93;;;;;;;17.58;100.00;100309.56;10299181;28;20035;-73
2023/07/24 01:23:18;;;;;;;7.78;6.20;;;;;;;17.62;100.00;100297.03;10330173;28;20046;-72
2023/07/24 01:28:18;;;;;;;6.53;5.85;;;;;;;17.56;100.00;100290.69;10331218;28;20030;-73
2023/07/24 01:33:19;;;;;;;7.63;5.22;;;;;;;17.54;100.00;100289.28;10315294;28;20026;-72
2023/07/24 01:38:19;;;;;;;7.97;5.70;;;;;;;17.55;100.00;100293.66;10300659;28;20052;-72
2023/07/24 01:43:20;;;;;;;12.65;5.00;;;;;;;17.55;100.00;100289.03;10314508;28;20415;-73
2023/07/24 01:48:20;;;;;;;6.93;4.53;;;;;;;17.54;100.00;100290.09;10329657;28;20089;-73
2023/07/24 01:53:20;;;;;;;12.80;4.63;;;;;;;17.56;100.00;100284.38;10330990;28;20035;-72
2023/07/24 01:58:21;;;;;;;8.75;4.53;;;;;;;17.54;100.00;100290.09;10331164;28;20105;-72
2023/07/24 02:03:21;;;;;;;5.78;4.78;;;;;;;17.60;100.00;100271.81;10330313;28;20038;-73
2023/07/24 02:08:22;;;;;;;11.10;5.50;;;;;;;17.60;100.00;100248.00;10330674;28;20045;-71
2023/07/24 02:13:22;;;;;;;7.72;6.13;;;;;;;17.62;100.00;100255.97;10331493;28;20089;-72
2023/07/24 02:18:22;;;;;;;7.07;4.75;;;;;;;17.64;100.00;100256.50;10316928;28;20045;-72
2023/07/24 02:23:23;;;;;;;4.82;4.15;;;;;;;17.67;100.00;100247.78;10334706;28;20597;-71
2023/07/24 02:28:23;;;;;;;5.68;4.47;;;;;;;17.69;100.00;100253.84;10336949;28;20483;-73
2023/07/24 02:33:24;;;;;;;7.72;5.22;;;;;;;17.71;100.00;100248.94;10337674;28;20485;-72
2023/07/24 02:38:24;;;;;;;7.65;4.35;;;;;;;17.67;100.00;100234.09;10339984;28;20038;-73
2023/07/24 02:43:24;;;;;;;7.38;5.22;;;;;;;17.67;100.00;100221.22;10340136;28;20057;-73
2023/07/24 02:48:25;;;;;;;7.20;4.35;;;;;;;17.77;100.00;100225.16;10338980;28;20038;-71
2023/07/24 02:53:25;;;;;;;5.60;4.07;;;;;;;17.79;100.00;100221.09;10321577;28;20048;-73
2023/07/24 02:58:26;;;;;;;6.45;5.65;;;;;;;17.87;100.00;100223.34;10340193;28;20066;-71
2023/07/24 03:03:27;;;;;;;12.90;3.83;;;;;;;17.86;100.00;100232.63;10335128;28;20050;-72
2023/07/24 03:08:28;;;;;;;16.17;5.18;;;;;;;17.92;100.00;100235.41;10336160;28;20454;-73
2023/07/24 03:13:30;;;;;;;8.77;4.82;;;;;;;17.99;100.00;100236.00;10335211;28;20046;-73
2023/07/24 03:18:30;;;;;;;13.15;4.68;;;;;;;17.96;100.00;100236.53;10318532;28;20060;-73
2023/07/24 03:23:31;;;;;;;8.35;4.65;;;;;;;17.96;100.00;100237.34;10333533;28;20178;-73
2023/07/24 03:28:31;;;;;;;8.32;4.10;;;;;;;17.97;100.00;100233.56;10335869;28;20043;-74
2023/07/24 03:33:31;;;;;;;10.70;4.13;;;;;;;17.94;100.00;100227.78;10332141;28;20034;-73
2023/07/24 03:38:32;;;;;;;17.60;5.40;;;;;;;17.71;100.00;100220.69;10334911;28;20135;-74
2023/07/24 03:43:32;;;;;;;9.35;4.97;;;;;;;17.71;100.00;100223.44;10335666;28;20358;-71
2023/07/24 03:48:34;;;;;;;13.95;7.07;;;;;;;17.76;100.00;100223.50;10334803;28;20041;-72
2023/07/24 03:53:34;;;;;;;14.52;5.70;;;;;;;17.72;100.00;100219.63;10334434;28;20035;-74
2023/07/24 03:58:35;;;;;;;18.45;5.85;;;;;;;17.76;100.00;100218.84;10333942;28;20034;-73
2023/07/24 04:03:35;;;;;;;9.82;5.22;;;;;;;17.79;100.00;100214.78;10334019;28;20081;-71
2023/07/24 04:08:36;;;;;;;6.60;4.65;;;;;;;17.80;100.00;100224.63;10316706;28;20030;-71
2023/07/24 04:13:36;;;;;;;5.30;4.07;;;;;;;17.83;100.00;100219.47;10335092;28;20096;-72
2023/07/24 04:18:37;;;;;;;15.90;5.97;;;;;;;17.79;100.00;100223.81;10335018;28;20093;-73
2023/07/24 04:23:37;;;;;;;7.95;4.97;;;;;;;17.82;100.00;100222.47;10315307;28;20050;-74
2023/07/24 04:28:37;;;;;;;8.75;4.78;;;;;;;17.85;100.00;100225.50;10333185;28;20030;-72
2023/07/24 04:33:38;;;;;;;7.10;5.18;;;;;;;17.82;100.00;100217.00;10315543;28;20026;-73
2023/07/24 04:38:39;;;;;;;9.68;4.95;;;;;;;17.87;100.00;100226.09;10315367;28;20349;-73
2023/07/24 04:43:39;;;;;;;10.90;5.10;;;;;;;17.87;100.00;100225.25;10332187;28;20057;-73
2023/07/24 04:48:40;;;;;;;10.77;5.30;;;;;;;17.96;100.00;100222.84;10331961;28;20041;-72
2023/07/24 04:53:40;;;;;;;12.18;4.88;;;;;;;18.00;100.00;100233.03;10333391;28;20042;-72
2023/07/24 04:58:40;;;;;;;10.13;4.93;;;;;;;18.02;100.00;100222.63;10332170;28;20116;-72
2023/07/24 05:03:41;;;;;;;11.68;5.65;;;;;;;18.04;100.00;100223.19;10331850;28;20037;-74
2023/07/24 05:08:41;;;;;;;9.48;4.18;;;;;;;18.05;100.00;100219.34;10314461;28;20117;-72
2023/07/24 05:13:41;;;;;;;4.80;4.22;;;;;;;18.05;100.00;100219.34;10332596;28;20389;-73
2023/07/24 05:18:42;;;;;;;5.53;4.97;;;;;;;18.12;100.00;100214.47;10315848;28;20073;-74
2023/07/24 05:23:42;;;;;;;5.10;4.60;;;;;;;18.08;100.00;100226.22;10331715;28;20058;-73
2023/07/24 05:28:43;;;;;;;9.70;5.13;;;;;;;18.16;100.00;100217.53;10332230;28;20132;-72
2023/07/24 05:33:43;;;;;;;17.55;6.07;;;;;;;18.27;100.00;100218.41;10315264;28;20042;-73
2023/07/24 05:38:43;;;;;;;5.57;3.53;;;;;;;18.26;100.00;100214.00;10331062;28;20041;-72
2023/07/24 05:43:44;;;;;;;5.05;3.60;;;;;;;18.43;100.00;100216.56;10330152;28;20042;-72
2023/07/24 05:48:44;;;;;;;5.90;4.13;;;;;;;18.63;100.00;100224.88;10330148;28;20042;-73
2023/07/24 05:53:45;;;;;;;4.78;3.78;;;;;;;18.70;100.00;100228.22;10312716;28;20363;-72
2023/07/24 05:58:45;;;;;;;10.05;5.00;;;;;;;18.79;100.00;100225.78;10336570;28;20037;-72
2023/07/24 06:03:45;;;;;;;4.32;3.92;;;;;;;18.67;100.00;100228.75;10322658;28;20030;-71
2023/07/24 06:08:47;;;;;;;4.75;4.35;;;;;;;18.96;100.00;100228.34;10321158;28;20375;-72
2023/07/24 06:13:47;;;;;;;17.50;4.53;;;;;;;19.42;100.00;100239.41;10321166;28;20578;-74
2023/07/24 06:18:48;;;;;;;5.97;3.83;;;;;;;19.48;100.00;100250.13;10276345;28;20113;-72
2023/07/24 06:23:48;;;;;;;8.57;4.05;;;;;;;19.42;100.00;100247.66;10338700;28;20506;-71
2023/07/24 06:28:48;;;;;;;11.57;4.07;;;;;;;19.27;100.00;100248.44;10336692;28;20039;-72
2023/07/24 06:33:49;;;;;;;7.07;4.10;;;;;;;19.88;100.00;100245.81;10336965;28;20062;-73
2023/07/24 06:38:49;;;;;;;9.75;3.97;;;;;;;19.93;100.00;100244.97;10338285;28;20034;-71
2023/07/24 06:43:50;;;;;;;12.90;4.60;;;;;;;20.59;100.00;100255.88;10304999;28;20470;-71
2023/07/24 06:48:50;;;;;;;5.10;3.67;;;;;;;21.47;100.00;100243.34;10336391;28;20426;-73
2023/07/24 06:53:50;;;;;;;7.13;4.18;;;;;;;21.80;100.00;100254.69;10340792;28;20426;-73
2023/07/24 06:58:51;;;;;;;10.43;4.00;;;;;;;22.01;100.00;100250.63;10304631;28;20245;-75
2023/07/24 07:03:51;;;;;;;6.78;3.70;;;;;;;22.42;100.00;100236.47;10336951;28;20034;-69
2023/07/24 07:08:52;;;;;;;7.32;3.60;;;;;;;21.39;100.00;100243.16;10318564;28;20042;-67
2023/07/24 07:13:52;;;;;;;10.55;4.35;;;;;;;20.81;100.00;100241.78;10336290;28;20053;-70
2023/07/24 07:18:52;;;;;;;6.13;4.13;;;;;;;22.80;100.00;100247.63;10336693;28;20037;-67
2023/07/24 07:23:53;;;;;;;9.48;5.20;;;;;;;23.95;98.84;100244.59;10318446;28;20065;-67
2023/07/24 07:28:54;;;;;;;8.85;4.88;;;;;;;24.93;92.63;100232.53;10335045;28;20068;-69
2023/07/24 07:33:54;;;;;;;6.78;3.65;;;;;;;24.38;91.57;100225.03;10342797;28;20042;-72
2023/07/24 07:38:55;;;;;;;5.95;3.47;;;;;;;25.73;84.58;100220.69;10336411;28;20434;-71
2023/07/24 07:43:55;;;;;;;6.75;4.38;;;;;;;24.64;89.11;100217.06;10336811;28;20042;-72
2023/07/24 07:48:55;;;;;;;4.20;3.80;;;;;;;23.02;96.38;100218.66;10336278;28;20405;-74
2023/07/24 07:53:56;;;;;;;5.25;4.00;;;;;;;22.11;96.91;100230.41;10335307;28;20074;-74
2023/07/24 07:58:56;;;;;;;6.40;3.53;;;;;;;21.99;99.44;100230.81;10316958;28;20030;-74
2023/07/24 08:03:57;;;;;;;7.60;3.45;;;;;;;21.24;99.03;100235.75;10334364;28;20401;-74
2023/07/24 08:08:57;;;;;;;11.98;5.07;;;;;;;21.50;100.00;100230.94;10342458;28;20045;-76
2023/07/24 08:13:58;;;;;;;7.60;3.75;;;;;;;22.77;100.00;100223.38;10326943;28;20453;-74
2023/07/24 08:18:58;;;;;;;11.50;5.68;;;;;;;24.48;86.74;100224.03;10327648;28;20065;-76
2023/07/24 08:23:59;;;;;;;3.10;2.35;;;;;;;23.94;89.98;100218.09;10344332;28;20053;-75
2023/07/24 08:29:00;;;;;;;3.42;2.78;;;;;;;22.62;93.52;100238.19;10340544;28;20101;-72
2023/07/24 08:34:00;;;;;;;5.88;4.00;;;;;;;21.87;96.12;100224.03;10340494;28;20069;-75
2023/07/24 08:39:01;;;;;;;5.68;4.13;;;;;;;21.86;99.77;100223.22;10340724;28;20034;-73
2023/07/24 08:44:01;;;;;;;13.13;2.95;;;;;;;22.37;97.34;100225.50;10334376;28;20080;-77
2023/07/24 08:49:01;;;;;;;6.57;2.58;;;;;;;22.38;93.65;100229.91;10320497;28;20116;-80
2023/07/24 08:54:03;;;;;;;14.27;3.13;;;;;;;22.33;94.18;100227.19;10336248;28;20101;-77
2023/07/24 08:59:03;;;;;;;5.90;3.83;;;;;;;23.05;95.08;100224.41;10320718;28;20026;-80
2023/07/24 09:04:04;;;;;;;9.77;3.60;;;;;;;23.40;91.50;100211.19;10318789;28;20044;-79
2023/07/24 09:09:14;;;;;;;11.07;2.83;;;;;;;23.59;91.00;100203.72;10335197;28;20030;-78
2023/07/24 09:14:25;;;;;;;5.93;2.40;;;;;;;23.56;87.45;100195.19;10318902;28;20114;-79
2023/07/24 09:19:26;;;;;;;4.90;3.45;;;;;;;24.07;90.54;100194.34;10334343;28;20053;-79
2023/07/24 09:24:26;;;;;;;13.43;3.35;;;;;;;25.68;78.70;100190.31;10316286;28;20066;-80
2023/07/24 09:29:31;;;;;;;4.85;2.80;;;;;;;26.94;79.64;100199.38;10305574;28;20034;-80
2023/07/24 09:34:31;;;;;;;3.30;3.10;;;;;;;25.25;71.08;100190.00;10353299;28;20085;-80
2023/07/24 09:39:32;;;;;;;5.35;3.63;;;;;;;23.58;78.68;100217.81;10324019;28;20081;-79
2023/07/24 09:44:32;;;;;;;5.25;3.85;;;;;;;23.30;85.44;100209.41;10339403;28;20065;-77
2023/07/24 09:49:33;;;;;;;4.78;3.42;;;;;;;22.85;83.97;100205.34;10338406;28;20026;-76
2023/07/24 09:54:38;;;;;;;8.27;3.78;;;;;;;22.79;87.49;100209.28;10322992;28;20493;-75
2023/07/24 09:59:39;;;;;;;4.23;3.33;;;;;;;23.12;87.48;100196.41;10322473;28;20030;-76
2023/07/24 10:04:40;;;;;;;6.55;3.72;;;;;;;25.45;84.74;100202.53;10337478;28;20264;-76
2023/07/24 10:09:41;;;;;;;6.30;4.28;;;;;;;26.96;76.70;100195.13;10340139;28;20420;-77
2023/07/24 10:14:41;;;;;;;3.20;2.90;;;;;;;27.09;70.13;100196.13;10323305;28;20038;-74
2023/07/24 10:19:45;;;;;;;5.40;4.53;;;;;;;27.34;62.98;100202.88;10321635;28;20462;-75
2023/07/24 10:24:46;;;;;;;3.65;3.45;;;;;;;27.73;58.05;100187.97;10339776;28;20124;-76
2023/07/24 10:29:48;;;;;;;4.93;3.22;;;;;;;26.32;68.57;100187.25;10338765;28;20042;-76
2023/07/24 10:34:59;;;;;;;3.42;3.13;;;;;;;27.21;64.70;100182.44;10320622;28;20348;-76
2023/07/24 10:39:59;;;;;;;6.28;2.67;;;;;;;29.01;58.26;100185.34;10336864;28;20034;-75
2023/07/24 10:45:06;;;;;;;3.05;2.85;;;;;;;28.46;54.11;100181.53;10319077;28;20043;-73
2023/07/24 10:50:07;;;;;;;4.45;3.65;;;;;;;26.34;65.34;100195.25;10321173;28;20060;-79
2023/07/24 10:55:08;;;;;;;3.08;2.55;;;;;;;25.68;72.19;100192.25;10287623;28;20046;-71
2023/07/24 11:00:09;;;;;;;11.85;4.30;;;;;;;24.79;69.25;100202.06;10318827;28;20034;-73
2023/07/24 11:05:09;;;;;;;3.55;3.28;;;;;;;24.40;76.59;100205.34;10336126;28;20035;-72
2023/07/24 11:10:20;;;;;;;3.42;3.15;;;;;;;24.68;76.33;100218.06;10334738;28;20030;-71
2023/07/24 11:15:25;;;;;;;3.40;3.15;;;;;;;24.29;80.82;100219.38;10318704;28;20026;-74
2023/07/24 11:20:26;;;;;;;3.10;2.63;;;;;;;24.21;77.14;100219.25;10318913;28;20493;-72
2023/07/24 11:25:26;;;;;;;4.88;2.55;;;;;;;23.58;78.19;100221.41;10317873;28;20062;-75
2023/07/24 11:30:27;;;;;;;4.70;2.45;;;;;;;24.20;78.82;100226.72;10333628;28;20046;-72
2023/07/24 11:35:27;;;;;;;2.33;2.05;;;;;;;24.79;75.30;100233.34;10335572;28;20073;-72
2023/07/24 11:40:32;;;;;;;2.08;1.88;;;;;;;24.62;75.10;100224.03;10335293;28;20086;-73
2023/07/24 11:45:42;;;;;;;2.72;2.00;;;;;;;24.87;77.45;100231.00;10317476;28;20074;-76
2023/07/24 11:50:47;;;;;;;4.43;2.80;;;;;;;24.33;77.80;100228.69;10334828;28;20481;-71
2023/07/24 11:55:48;;;;;;;2.42;2.00;;;;;;;23.63;81.16;100234.31;10334364;28;20035;-70
2023/07/24 12:00:48;;;;;;;11.90;1.95;;;;;;;23.32;83.78;100231.19;10332614;28;20331;-75
2023/07/24 12:05:50;;;;;;;1.90;1.80;;;;;;;23.92;82.24;100236.09;10333414;28;20038;-77
2023/07/24 12:10:51;;;;;;;1.80;1.70;;;;;;;23.55;81.41;100235.03;10321356;28;20038;-76
2023/07/24 12:15:51;;;;;;;2.40;2.17;;;;;;;23.13;84.29;100243.09;10332704;28;20062;-76
2023/07/24 12:20:51;;;;;;;2.13;1.80;;;;;;;22.94;85.32;100239.47;10334229;28;20041;-78
2023/07/24 12:25:52;;;;;;;2.33;2.15;;;;;;;22.86;83.86;100248.38;10282409;28;20047;-75
2023/07/24 12:30:53;;;;;;;1.38;1.27;;;;;;;22.27;86.19;100248.50;10317016;28;20036;-78
2023/07/24 12:35:54;;;;;;;1.42;1.25;;;;;;;21.97;89.20;100246.81;10333371;28;20050;-77
2023/07/24 12:40:54;;;;;;;4.00;2.58;;;;;;;21.83;88.97;100248.59;10334791;28;20034;-72
2023/07/24 12:45:54;;;;;;;2.67;2.47;;;;;;;21.64;90.17;100253.16;10317141;28;20100;-77
2023/07/24 12:50:57;;;;;;;2.15;1.88;;;;;;;21.73;91.81;100254.19;10337354;28;20030;-78
2023/07/24 12:55:57;;;;;;;3.25;1.80;;;;;;;22.13;91.24;100243.91;10336951;28;20038;-77
2023/07/24 13:00:58;;;;;;;4.50;2.28;;;;;;;21.74;92.10;100256.66;10332231;28;20037;-77
2023/07/24 13:05:59;;;;;;;1.50;1.45;;;;;;;21.27;93.42;100259.97;10333031;28;20037;-78
2023/07/24 13:10:59;;;;;;;7.25;2.55;;;;;;;21.08;93.99;100266.13;10314975;28;20125;-73
2023/07/24 13:16:00;;;;;;;3.10;2.03;;;;;;;21.01;94.83;100267.56;10332048;28;20046;-78
2023/07/24 13:21:00;;;;;;;6.00;1.85;;;;;;;21.40;94.05;100272.31;10333032;28;20038;-77
2023/07/24 13:26:01;;;;;;;5.13;2.53;;;;;;;22.18;91.55;100272.31;10332469;28;20054;-74
2023/07/24 13:31:18;;;;;;;2.40;2.20;;;;;;;22.16;90.18;100276.47;10335250;28;20133;-76
2023/07/24 13:36:18;;;;;;;9.60;2.47;;;;;;;22.15;88.80;100267.34;10315737;28;20477;-74
2023/07/24 13:41:19;;;;;;;2.15;2.05;;;;;;;22.01;88.71;100282.91;10331147;28;20061;-75
2023/07/24 13:46:19;;;;;;;10.32;2.72;;;;;;;21.21;89.49;100302.41;10331878;28;20414;-75
2023/07/24 13:51:19;;;;;;;3.35;2.08;;;;;;;20.71;91.31;100320.75;10331736;28;20038;-71
2023/07/24 13:56:23;;;;;;;9.00;2.15;;;;;;;20.53;93.07;100313.94;10314738;28;20033;-76
2023/07/24 14:01:23;;;;;;;1.92;1.77;;;;;;;20.30;94.10;100320.81;10332456;28;20484;-73
2023/07/24 14:06:23;;;;;;;6.40;2.95;;;;;;;20.12;94.40;100320.25;10330765;28;20039;-71
2023/07/24 14:11:26;;;;;;;2.83;2.05;;;;;;;20.00;95.62;100324.38;10332506;28;20034;-70
2023/07/24 14:16:27;;;;;;;1.73;1.63;;;;;;;19.68;96.55;100334.50;10332627;28;20060;-71
2023/07/24 14:21:27;;;;;;;4.47;2.90;;;;;;;19.28;97.78;100349.75;10338266;28;20037;-71
2023/07/24 14:26:27;;;;;;;7.70;1.98;;;;;;;18.95;98.87;100352.88;10339011;28;20054;-71
2023/07/24 14:31:29;;;;;;;4.88;1.77;;;;;;;18.58;100.00;100357.31;10320769;28;20041;-72
2023/07/24 14:36:33;;;;;;;3.65;2.45;;;;;;;18.36;100.00;100362.09;10305373;28;20430;-72
2023/07/24 14:41:34;;;;;;;1.23;1.13;;;;;;;18.72;100.00;100367.81;10321000;28;20117;-71
2023/07/24 14:46:35;;;;;;;7.97;1.30;;;;;;;19.31;100.00;100364.06;10320395;28;20030;-74
2023/07/24 14:51:35;;;;;;;2.85;1.63;;;;;;;19.69;98.17;100377.38;10339898;28;20105;-72
2023/07/24 14:56:35;;;;;;;1.17;1.17;;;;;;;19.41;96.14;100391.53;10337591;28;20065;-73
2023/07/24 15:01:36;;;;;;;1.30;1.30;;;;;;;19.32;95.95;100383.00;10336196;28;20445;-71
2023/07/24 15:06:36;;;;;;;1.35;0.90;;;;;;;19.49;95.64;100391.81;10337118;28;20050;-72
2023/07/24 15:11:37;;;;;;;6.05;1.63;;;;;;;19.62;94.55;100401.50;10318647;28;20093;-74
2023/07/24 15:16:37;;;;;;;4.00;0.90;;;;;;;19.39;93.03;100401.97;10335043;28;20049;-73
2023/07/24 15:21:38;;;;;;;1.95;1.13;;;;;;;19.27;94.08;100403.03;10336900;28;20037;-72
2023/07/24 15:26:38;;;;;;;5.22;1.75;;;;;;;19.15;93.35;100396.91;10336272;28;20053;-73
2023/07/24 15:31:40;;;;;;;1.73;1.38;;;;;;;19.11;94.18;100409.50;10337559;28;20038;-74
2023/07/24 15:36:41;;;;;;;3.83;1.60;;;;;;;18.96;92.13;100412.19;10334629;28;20026;-72
2023/07/24 15:41:41;;;;;;;9.60;1.67;;;;;;;19.07;92.07;100413.88;10317431;28;20030;-74
2023/07/24 15:46:42;;;;;;;0.80;0.80;;;;;;;19.20;91.71;100418.06;10334411;28;20038;-73
2023/07/24 15:51:43;;;;;;;3.03;2.08;;;;;;;19.30;90.26;100431.84;10335420;28;20034;-74
2023/07/24 15:56:43;;;;;;;7.40;2.53;;;;;;;19.35;90.89;100437.38;10333691;28;20039;-74
2023/07/24 16:01:44;;;;;;;3.47;1.63;;;;;;;19.60;89.91;100436.66;10317541;28;20053;-74
2023/07/24 16:06:44;;;;;;;2.78;2.08;;;;;;;19.66;90.07;100443.03;10317690;28;20449;-74
2023/07/24 16:11:45;;;;;;;11.55;2.63;;;;;;;19.12;88.77;100441.38;10335884;28;20450;-73
2023/07/24 16:16:45;;;;;;;5.95;2.55;;;;;;;18.93;91.95;100445.63;10334777;28;20061;-72
2023/07/24 16:21:47;;;;;;;3.10;1.80;;;;;;;19.02;93.75;100438.56;10333668;28;20038;-72
2023/07/24 16:26:47;;;;;;;2.33;1.50;;;;;;;18.87;93.65;100442.03;10316120;28;20058;-73
2023/07/24 16:31:48;;;;;;;3.13;1.60;;;;;;;18.92;93.25;100443.97;10316269;28;20042;-71
2023/07/24 16:36:48;;;;;;;4.40;1.35;;;;;;;18.96;91.48;100454.16;10333899;28;20030;-72
2023/07/24 16:41:49;;;;;;;3.50;1.75;;;;;;;19.06;89.96;100453.41;10316493;28;20045;-72
2023/07/24 16:46:49;;;;;;;1.38;1.27;;;;;;;19.01;88.14;100458.84;10333327;28;20133;-72
2023/07/24 16:51:49;;;;;;;1.50;1.45;;;;;;;18.67;87.37;100466.53;10314850;28;20134;-72
2023/07/24 16:56:51;;;;;;;2.25;1.77;;;;;;;18.85;89.39;100466.16;10331690;28;20054;-72
2023/07/24 17:01:51;;;;;;;3.75;1.98;;;;;;;18.82;89.42;100480.38;10331674;28;20433;-74
2023/07/24 17:06:52;;;;;;;2.15;1.73;;;;;;;18.42;88.56;100484.41;10333122;28;20100;-72
2023/07/24 17:11:52;;;;;;;4.75;2.20;;;;;;;18.24;90.67;100493.00;10331499;28;20037;-73
2023/07/24 17:16:53;;;;;;;5.10;1.90;;;;;;;18.06;92.12;100486.78;10332593;28;20038;-71
2023/07/24 17:21:53;;;;;;;8.15;3.38;;;;;;;17.88;92.69;100504.38;10331840;28;20105;-73
2023/07/24 17:26:53;;;;;;;5.05;2.67;;;;;;;17.78;94.01;100509.75;10333563;28;20050;-72
2023/07/24 17:31:54;;;;;;;2.42;1.90;;;;;;;17.88;94.99;100522.75;10331571;28;20117;-71
2023/07/24 17:36:55;;;;;;;6.40;1.65;;;;;;;17.96;94.32;100524.19;10331774;28;20058;-72
2023/07/24 17:41:55;;;;;;;5.30;2.13;;;;;;;17.83;93.98;100519.91;10330682;28;20125;-72
2023/07/24 17:46:56;;;;;;;6.15;2.58;;;;;;;17.51;96.07;100533.44;10331627;28;20477;-72
2023/07/24 17:51:56;;;;;;;3.03;2.15;;;;;;;17.67;95.29;100527.91;10317590;28;20046;-75
2023/07/24 17:56:58;;;;;;;9.00;2.00;;;;;;;17.55;94.67;100524.47;10329609;28;20038;-74
2023/07/24 18:01:58;;;;;;;4.20;1.80;;;;;;;17.27;92.34;100539.13;10345070;28;20031;-72
2023/07/24 18:06:59;;;;;;;6.25;2.05;;;;;;;16.97;88.94;100547.66;10345650;28;20093;-74
2023/07/24 18:12:00;;;;;;;11.38;2.00;;;;;;;16.82;87.88;100548.25;10344163;28;20102;-73
2023/07/24 18:17:00;;;;;;;4.03;2.05;;;;;;;16.69;88.56;100548.56;10342925;28;20037;-73
2023/07/24 18:22:00;;;;;;;9.32;2.75;;;;;;;16.68;89.01;100550.44;10341558;28;20041;-73
2023/07/24 18:27:01;;;;;;;3.70;1.90;;;;;;;16.56;90.21;100555.16;10342576;28;20050;-72
2023/07/24 18:32:02;;;;;;;2.33;2.05;;;;;;;16.44;90.69;100560.66;10341784;28;20134;-73
2023/07/24 18:37:03;;;;;;;4.53;2.13;;;;;;;16.36;92.11;100555.59;10340506;28;20039;-75
2023/07/24 18:42:03;;;;;;;3.95;2.10;;;;;;;16.30;94.08;100563.94;10339859;28;20108;-72
2023/07/24 18:47:04;;;;;;;1.63;1.33;;;;;;;16.28;93.02;100573.22;10341109;28;20092;-71
2023/07/24 18:52:05;;;;;;;3.55;2.25;;;;;;;16.25;93.86;100589.25;10345502;28;20099;-70
2023/07/24 18:57:05;;;;;;;3.40;1.95;;;;;;;16.34;93.45;100581.53;10344153;28;20141;-73
2023/07/24 19:02:05;;;;;;;8.85;3.20;;;;;;;16.25;93.57;100589.25;10343602;28;20458;-71
2023/07/24 19:07:06;;;;;;;2.38;1.77;;;;;;;16.18;94.17;100591.31;10343248;28;20100;-71
2023/07/24 19:12:07;;;;;;;3.83;1.98;;;;;;;16.05;94.47;100597.88;10340302;28;20045;-73
2023/07/24 19:17:07;;;;;;;3.53;1.90;;;;;;;15.97;94.57;100600.97;10322005;28;20056;-73
2023/07/24 19:22:07;;;;;;;8.40;2.53;;;;;;;16.01;94.77;100611.16;10340189;28;20043;-72
2023/07/24 19:27:08;;;;;;;11.85;2.78;;;;;;;16.18;94.93;100624.91;10342799;28;20050;-72
2023/07/24 19:32:08;;;;;;;4.45;1.80;;;;;;;16.11;93.75;100628.84;10321571;28;20089;-70
2023/07/24 19:37:09;;;;;;;7.55;2.33;;;;;;;15.93;94.13;100635.31;10338235;28;20035;-72
2023/07/24 19:42:10;;;;;;;2.58;1.52;;;;;;;15.76;93.96;100644.22;10317425;28;20125;-70
2023/07/24 19:47:10;;;;;;;5.25;1.75;;;;;;;15.64;94.19;100653.44;10335222;28;20038;-70
2023/07/24 19:52:10;;;;;;;9.73;3.08;;;;;;;15.52;94.28;100659.72;10317192;28;20069;-71
2023/07/24 19:57:11;;;;;;;5.72;2.38;;;;;;;15.42;93.87;100664.94;10333964;28;20046;-72
2023/07/24 20:02:11;;;;;;;6.05;2.25;;;;;;;15.31;94.44;100668.47;10316562;28;20097;-74
2023/07/24 20:07:12;;;;;;;2.35;2.13;;;;;;;15.28;94.09;100672.50;10336164;28;20100;-74
2023/07/24 20:12:12;;;;;;;7.15;3.35;;;;;;;15.17;93.58;100677.94;10317173;28;20030;-70
2023/07/24 20:17:13;;;;;;;5.80;2.30;;;;;;;15.13;93.57;100677.56;10332604;28;20042;-71
2023/07/24 20:22:13;;;;;;;8.18;2.67;;;;;;;15.00;94.05;100683.22;10315126;28;20112;-70
2023/07/24 20:27:14;;;;;;;2.90;2.25;;;;;;;14.87;93.90;100684.25;10301924;28;20113;-73
2023/07/24 20:32:14;;;;;;;7.45;3.58;;;;;;;14.88;94.58;100697.63;10316560;28;20141;-71
2023/07/24 20:37:15;;;;;;;3.40;2.42;;;;;;;15.10;95.47;100697.94;10332633;28;20062;-71
2023/07/24 20:42:15;;;;;;;7.47;2.17;;;;;;;15.40;95.83;100694.34;10315477;28;20568;-73
2023/07/24 20:47:15;;;;;;;2.22;2.00;;;;;;;15.61;95.54;100700.31;10316870;28;20057;-74
2023/07/24 20:52:16;;;;;;;11.90;3.05;;;;;;;15.78;95.87;100701.31;10332981;28;20031;-72
2023/07/24 20:57:16;;;;;;;7.72;2.72;;;;;;;15.91;95.03;100692.88;10332799;28;20484;-72
2023/07/24 21:02:17;;;;;;;14.85;3.08;;;;;;;15.75;93.93;100696.31;10332923;28;20038;-73
2023/07/24 21:07:17;;;;;;;2.72;2.45;;;;;;;15.45;93.96;100707.31;10332266;28;20057;-74
2023/07/24 21:12:17;;;;;;;14.00;4.30;;;;;;;15.17;94.35;100699.75;10333566;28;20093;-74
2023/07/24 21:17:18;;;;;;;7.45;3.15;;;;;;;15.00;94.83;100700.41;10333349;28;20057;-74
2023/07/24 21:22:18;;;;;;;4.32;2.22;;;;;;;14.95;95.84;100705.72;10330642;28;20034;-73
2023/07/24 21:27:19;;;;;;;2.67;2.40;;;;;;;15.15;96.55;100697.25;10333044;28;20066;-74
2023/07/24 21:32:19;;;;;;;2.80;2.00;;;;;;;15.19;95.69;100703.06;10314654;28;20126;-73
2023/07/24 21:37:19;;;;;;;2.90;1.95;;;;;;;14.98;95.07;100699.81;10331522;28;20042;-73
2023/07/24 21:42:20;;;;;;;8.68;2.17;;;;;;;14.73;95.06;100705.38;10331806;28;20035;-74
2023/07/24 21:47:20;;;;;;;6.72;2.08;;;;;;;14.49;94.97;100706.31;10330734;28;20041;-69
2023/07/24 21:52:21;;;;;;;8.48;2.63;;;;;;;14.24;95.93;100696.31;10330680;28;20030;-74
2023/07/24 21:57:21;;;;;;;3.00;2.80;;;;;;;14.07;96.08;100703.41;10331195;28;20042;-72
2023/07/24 22:02:21;;;;;;;8.10;2.38;;;;;;;13.92;96.51;100704.59;10330498;28;20030;-74
2023/07/24 22:07:22;;;;;;;6.30;2.45;;;;;;;13.79;96.35;100709.34;10331101;28;20522;-75
2023/07/24 22:12:22;;;;;;;10.05;2.42;;;;;;;13.68;96.63;100703.56;10331062;28;20064;-74
2023/07/24 22:17:26;;;;;;;7.72;3.92;;;;;;;13.59;96.72;100701.34;10331167;28;20109;-74
2023/07/24 22:22:26;;;;;;;4.45;2.22;;;;;;;13.49;96.88;100696.41;10329827;28;20096;-74
2023/07/24 22:27:26;;;;;;;7.28;2.55;;;;;;;13.39;97.66;100696.88;10313308;28;20100;-74
2023/07/24 22:32:27;;;;;;;6.07;3.10;;;;;;;13.36;97.45;100693.78;10330906;28;20037;-73
2023/07/24 22:37:27;;;;;;;10.00;2.25;;;;;;;13.34;97.65;100691.31;10333702;28;20496;-73
2023/07/24 22:42:28;;;;;;;9.40;3.97;;;;;;;13.32;97.48;100695.28;10321567;28;20113;-74
2023/07/24 22:47:28;;;;;;;8.70;3.28;;;;;;;13.27;97.49;100698.66;10341473;28;20034;-74
2023/07/24 22:52:29;;;;;;;6.75;2.72;;;;;;;13.21;97.91;100694.91;10338465;28;20039;-74
2023/07/24 22:57:29;;;;;;;5.60;2.92;;;;;;;13.17;97.94;100693.66;10320353;28;20041;-74